createdAt,value
2022-09-10T00:01:03.392Z,13.14
2022-09-10T00:03:29.616Z,13.10
2022-09-10T00:05:55.408Z,13.14
2022-09-10T00:08:21.346Z,13.23
2022-09-10T00:10:50.748Z,13.23
2022-09-10T00:13:20.823Z,13.28
2022-09-10T00:15:51.950Z,13.23
2022-09-10T00:18:19.973Z,13.25
2022-09-10T00:20:48.006Z,13.21
2022-09-10T00:23:15.645Z,13.23
2022-09-10T00:25:42.127Z,13.26
2022-09-10T00:28:08.445Z,13.23
2022-09-10T00:30:47.365Z,13.14
2022-09-10T00:33:14.616Z,13.10
2022-09-10T00:35:41.287Z,13.14
2022-09-10T00:38:09.253Z,13.24
2022-09-10T00:40:35.937Z,13.27
2022-09-10T00:43:01.767Z,13.26
2022-09-10T00:45:33.109Z,13.26
2022-09-10T00:48:26.159Z,13.30
2022-09-10T00:50:54.139Z,13.30
2022-09-10T00:53:27.528Z,13.44
2022-09-10T00:55:57.953Z,13.40
2022-09-10T00:58:26.105Z,13.21
2022-09-10T01:00:57.704Z,13.28
2022-09-10T01:03:25.665Z,13.10
2022-09-10T01:05:51.818Z,13.19
2022-09-10T01:08:18.394Z,13.10
2022-09-10T01:10:53.648Z,13.20
2022-09-10T01:13:32.845Z,13.07
2022-09-10T01:16:14.360Z,13.16
2022-09-10T01:19:11.541Z,13.12
2022-09-10T01:21:55.114Z,13.05
2022-09-10T01:24:43.375Z,13.08
2022-09-10T01:27:20.894Z,13.09
2022-09-10T01:29:53.317Z,13.17
2022-09-10T01:32:39.146Z,12.98
2022-09-10T01:35:14.052Z,12.98
2022-09-10T01:37:45.004Z,13.00
2022-09-10T01:40:11.949Z,12.87
2022-09-10T01:42:40.027Z,12.89
2022-09-10T01:45:06.433Z,12.85
2022-09-10T01:48:02.924Z,12.93
2022-09-10T01:50:34.845Z,12.92
2022-09-10T01:53:16.859Z,13.17
2022-09-10T01:56:00.173Z,13.05
2022-09-10T01:58:37.187Z,13.05
2022-09-10T02:01:16.105Z,13.05
2022-09-10T02:03:46.083Z,13.09
2022-09-10T02:06:16.288Z,13.09
2022-09-10T02:08:44.790Z,13.05
2022-09-10T02:11:13.451Z,13.05
2022-09-10T02:13:41.725Z,13.06
2022-09-10T02:16:13.884Z,13.06
2022-09-10T02:18:41.744Z,12.95
2022-09-10T02:21:09.488Z,12.98
2022-09-10T02:23:49.545Z,13.12
2022-09-10T02:26:15.334Z,13.15
2022-09-10T02:28:48.266Z,13.07
2022-09-10T02:31:14.444Z,13.09
2022-09-10T02:33:40.341Z,13.17
2022-09-10T02:36:06.643Z,12.98
2022-09-10T02:38:32.498Z,12.98
2022-09-10T02:40:58.659Z,12.93
2022-09-10T02:43:25.808Z,12.99
2022-09-10T02:45:57.722Z,12.89
2022-09-10T02:48:25.450Z,12.92
2022-09-10T02:50:52.515Z,12.97
2022-09-10T02:53:18.994Z,12.94
2022-09-10T02:55:45.573Z,13.09
2022-09-10T02:58:12.713Z,12.96
2022-09-10T03:00:39.299Z,12.86
2022-09-10T03:03:05.218Z,12.94
2022-09-10T03:05:31.994Z,13.02
2022-09-10T03:08:00.374Z,12.83
2022-09-10T03:10:26.439Z,12.88
2022-09-10T03:12:53.076Z,12.98
2022-09-10T03:15:19.893Z,12.90
2022-09-10T03:17:46.543Z,13.09
2022-09-10T03:20:12.841Z,12.97
2022-09-10T03:22:38.724Z,12.91
2022-09-10T03:25:05.568Z,12.86
2022-09-10T03:27:31.434Z,12.97
2022-09-10T03:29:57.204Z,13.04
2022-09-10T03:32:22.973Z,13.06
2022-09-10T03:34:48.768Z,12.97
2022-09-10T03:37:15.404Z,13.12
2022-09-10T03:39:41.322Z,12.84
2022-09-10T03:42:07.084Z,12.86
2022-09-10T03:44:32.985Z,12.87
2022-09-10T03:46:59.924Z,12.80
2022-09-10T03:49:26.423Z,12.81
2022-09-10T03:51:52.829Z,12.79
2022-09-10T03:54:19.899Z,12.97
2022-09-10T03:56:45.782Z,12.84
2022-09-10T03:59:16.504Z,12.90
2022-09-10T04:01:42.999Z,13.01
2022-09-10T04:04:08.909Z,13.10
2022-09-10T04:06:34.796Z,13.10
2022-09-10T04:09:00.894Z,13.20
2022-09-10T04:11:27.738Z,13.13
2022-09-10T04:13:54.897Z,13.00
2022-09-10T04:16:21.505Z,12.95
2022-09-10T04:18:47.257Z,12.97
2022-09-10T04:21:13.050Z,13.09
2022-09-10T04:23:41.962Z,12.92
2022-09-10T04:26:14.954Z,12.88
2022-09-10T04:28:40.963Z,12.80
2022-09-10T04:31:06.937Z,12.87
2022-09-10T04:33:32.770Z,12.76
2022-09-10T04:36:01.760Z,12.77
2022-09-10T04:38:31.979Z,12.69
2022-09-10T04:41:00.023Z,12.73
2022-09-10T04:43:27.019Z,12.73
2022-09-10T04:45:54.674Z,12.81
2022-09-10T04:48:24.067Z,12.78
2022-09-10T04:51:14.746Z,12.73
2022-09-10T04:53:36.509Z,12.78
2022-09-10T04:56:02.653Z,12.69
2022-09-10T04:58:28.622Z,12.69
2022-09-10T05:00:55.434Z,12.68
2022-09-10T05:03:21.719Z,12.55
2022-09-10T05:05:47.485Z,12.70
2022-09-10T05:08:13.700Z,12.64
2022-09-10T05:10:42.417Z,12.58
2022-09-10T05:13:08.499Z,12.62
2022-09-10T05:15:35.043Z,12.65
2022-09-10T05:18:01.489Z,12.73
2022-09-10T05:20:29.258Z,12.69
2022-09-10T05:22:55.467Z,12.65
2022-09-10T05:25:28.069Z,12.68
2022-09-10T05:27:54.489Z,12.53
2022-09-10T05:30:21.102Z,12.53
2022-09-10T05:32:46.844Z,12.68
2022-09-10T05:35:13.180Z,12.66
2022-09-10T05:37:39.334Z,12.59
2022-09-10T05:40:08.512Z,12.66
2022-09-10T05:42:34.970Z,12.72
2022-09-10T05:45:00.973Z,12.64
2022-09-10T05:47:27.499Z,12.70
2022-09-10T05:49:54.430Z,12.68
2022-09-10T05:52:20.168Z,12.77
2022-09-10T05:54:45.897Z,12.89
2022-09-10T05:57:11.804Z,12.77
2022-09-10T05:59:37.530Z,12.69
2022-09-10T06:02:03.369Z,12.83
2022-09-10T06:04:29.183Z,12.83
2022-09-10T06:06:55.492Z,12.79
2022-09-10T06:09:21.324Z,12.75
2022-09-10T06:11:48.628Z,12.82
2022-09-10T06:14:14.479Z,12.88
2022-09-10T06:16:41.053Z,12.78
2022-09-10T06:19:07.637Z,12.76
2022-09-10T06:21:33.717Z,12.85
2022-09-10T06:23:59.923Z,13.04
2022-09-10T06:26:25.823Z,13.23
2022-09-10T06:28:52.114Z,13.14
2022-09-10T06:31:19.029Z,13.09
2022-09-10T06:33:48.095Z,13.05
2022-09-10T06:36:14.293Z,13.03
2022-09-10T06:38:40.895Z,13.00
2022-09-10T06:41:11.308Z,13.09
2022-09-10T06:43:39.278Z,13.12
2022-09-10T06:46:40.789Z,13.12
2022-09-10T06:49:02.619Z,13.10
2022-09-10T06:51:29.023Z,13.03
2022-09-10T06:53:55.897Z,12.98
2022-09-10T06:56:21.868Z,12.91
2022-09-10T06:58:47.657Z,12.89
2022-09-10T07:01:20.767Z,12.96
2022-09-10T07:03:46.633Z,13.11
2022-09-10T07:06:17.192Z,13.09
2022-09-10T07:08:43.461Z,12.98
2022-09-10T07:11:12.140Z,13.04
2022-09-10T07:13:38.643Z,12.85
2022-09-10T07:16:05.157Z,12.90
2022-09-10T07:18:31.304Z,12.89
2022-09-10T07:21:07.967Z,12.92
2022-09-10T07:23:33.867Z,13.13
2022-09-10T07:26:07.677Z,12.95
2022-09-10T07:28:35.507Z,13.15
2022-09-10T07:31:19.008Z,13.30
2022-09-10T07:33:46.518Z,13.18
2022-09-10T07:36:13.583Z,13.27
2022-09-10T07:38:40.740Z,13.22
2022-09-10T07:41:10.977Z,13.21
2022-09-10T07:43:40.968Z,13.38
2022-09-10T07:46:08.057Z,13.48
2022-09-10T07:48:34.020Z,13.39
2022-09-10T07:51:01.773Z,13.47
2022-09-10T07:53:27.733Z,13.39
2022-09-10T07:56:02.265Z,13.43
2022-09-10T07:58:29.404Z,13.53
2022-09-10T08:00:55.189Z,13.69
2022-09-10T08:03:20.919Z,13.79
2022-09-10T08:05:48.647Z,13.72
2022-09-10T08:08:16.972Z,13.70
2022-09-10T08:10:42.729Z,13.66
2022-09-10T08:13:09.325Z,13.78
2022-09-10T08:15:35.333Z,13.58
2022-09-10T08:18:01.599Z,13.62
2022-09-10T08:20:27.748Z,13.61
2022-09-10T08:22:57.649Z,13.50
2022-09-10T08:25:23.412Z,13.59
2022-09-10T08:27:49.139Z,13.60
2022-09-10T08:30:15.010Z,13.65
2022-09-10T08:32:40.785Z,13.75
2022-09-10T08:35:06.834Z,13.75
2022-09-10T08:37:33.470Z,13.68
2022-09-10T08:39:59.447Z,13.88
2022-09-10T08:42:34.774Z,13.96
2022-09-10T08:45:09.888Z,13.81
2022-09-10T08:47:52.733Z,13.90
2022-09-10T08:50:45.929Z,13.90
2022-09-10T08:53:22.427Z,13.97
2022-09-10T08:55:49.968Z,13.90
2022-09-10T08:58:40.631Z,13.75
2022-09-10T09:01:13.463Z,13.79
2022-09-10T09:03:46.465Z,14.00
2022-09-10T09:06:33.283Z,14.21
2022-09-10T09:09:01.174Z,14.15
2022-09-10T09:11:44.992Z,14.11
2022-09-10T09:14:29.852Z,14.15
2022-09-10T09:17:23.609Z,13.89
2022-09-10T09:20:10.922Z,14.00
2022-09-10T09:22:54.364Z,14.08
2022-09-10T09:25:29.620Z,14.20
2022-09-10T09:27:56.785Z,14.11
2022-09-10T09:30:36.439Z,14.17
2022-09-10T09:33:11.895Z,14.24
2022-09-10T09:35:44.864Z,14.22
2022-09-10T09:38:20.332Z,14.24
2022-09-10T09:40:45.970Z,14.15
2022-09-10T09:43:34.874Z,14.20
2022-09-10T09:46:01.881Z,14.29
2022-09-10T09:48:36.883Z,14.39
2022-09-10T09:51:04.089Z,14.54
2022-09-10T09:53:30.299Z,14.70
2022-09-10T09:56:06.623Z,14.65
2022-09-10T09:58:34.721Z,14.79
2022-09-10T10:01:03.185Z,14.93
2022-09-10T10:03:31.754Z,14.84
2022-09-10T10:06:05.391Z,14.90
2022-09-10T10:08:40.570Z,15.13
2022-09-10T10:11:07.914Z,14.88
2022-09-10T10:13:44.579Z,14.93
2022-09-10T10:16:15.510Z,14.99
2022-09-10T10:18:42.391Z,14.94
2022-09-10T10:21:20.593Z,14.76
2022-09-10T10:23:47.600Z,14.78
2022-09-10T10:26:34.580Z,14.80
2022-09-10T10:29:06.498Z,14.66
2022-09-10T10:31:47.544Z,14.68
2022-09-10T10:34:15.969Z,14.74
2022-09-10T10:37:12.926Z,14.71
2022-09-10T10:40:22.669Z,14.60
2022-09-10T10:42:53.448Z,14.50
2022-09-10T10:45:37.316Z,14.46
2022-09-10T10:48:20.007Z,14.48
2022-09-10T10:50:58.130Z,14.41
2022-09-10T10:53:36.195Z,14.47
2022-09-10T10:56:14.062Z,14.38
2022-09-10T10:59:03.720Z,14.19
2022-09-10T11:01:34.566Z,14.18
2022-09-10T11:04:22.328Z,14.33
2022-09-10T11:07:13.812Z,14.15
2022-09-10T11:09:45.669Z,14.05
2022-09-10T11:12:19.698Z,14.13
2022-09-10T11:14:55.363Z,14.06
2022-09-10T11:17:38.763Z,13.94
2022-09-10T11:20:28.073Z,14.06
2022-09-10T11:23:07.038Z,14.12
2022-09-10T11:25:52.344Z,14.10
2022-09-10T11:28:24.577Z,14.15
2022-09-10T11:31:00.682Z,14.16
2022-09-10T11:33:41.089Z,14.25
2022-09-10T11:36:24.922Z,14.24
2022-09-10T11:39:33.908Z,14.27
2022-09-10T11:42:06.133Z,14.20
2022-09-10T11:44:48.811Z,14.13
2022-09-10T11:47:25.125Z,14.11
2022-09-10T11:50:00.483Z,14.13
2022-09-10T11:52:27.936Z,14.14
2022-09-10T11:54:55.443Z,14.04
2022-09-10T11:57:40.937Z,14.06
2022-09-10T12:00:20.081Z,14.04
2022-09-10T12:03:01.999Z,14.04
2022-09-10T12:05:53.992Z,14.01
2022-09-10T12:08:39.672Z,14.09
2022-09-10T12:11:24.341Z,14.17
2022-09-10T12:13:51.825Z,14.37
2022-09-10T12:16:26.140Z,14.49
2022-09-10T12:18:54.708Z,14.47
2022-09-10T12:21:38.170Z,14.41
2022-09-10T12:24:23.576Z,14.24
2022-09-10T12:26:49.466Z,14.13
2022-09-10T12:29:48.511Z,14.04
2022-09-10T12:32:27.799Z,13.97
2022-09-10T12:35:37.345Z,13.87
2022-09-10T12:38:40.421Z,13.96
2022-09-10T12:41:14.027Z,13.97
2022-09-10T12:43:39.995Z,13.84
2022-09-10T12:46:08.892Z,13.84
2022-09-10T12:48:38.997Z,13.87
2022-09-10T12:51:20.255Z,13.91
2022-09-10T12:54:19.488Z,13.90
2022-09-10T12:57:19.618Z,13.96
2022-09-10T13:00:03.724Z,13.97
2022-09-10T13:02:43.511Z,13.99
2022-09-10T13:05:22.493Z,13.99
2022-09-10T13:07:58.592Z,13.97
2022-09-10T13:10:28.974Z,13.91
2022-09-10T13:12:59.841Z,13.96
2022-09-10T13:15:29.660Z,14.03
2022-09-10T13:17:55.694Z,14.15
2022-09-10T13:20:21.432Z,14.14
2022-09-10T13:22:58.016Z,14.16
2022-09-10T13:25:31.580Z,14.16
2022-09-10T13:27:57.575Z,14.07
2022-09-10T13:30:24.364Z,14.14
2022-09-10T13:32:56.038Z,14.22
2022-09-10T13:35:40.852Z,14.21
2022-09-10T13:38:25.188Z,14.35
2022-09-10T13:41:39.481Z,14.31
2022-09-10T13:44:22.566Z,14.13
2022-09-10T13:46:54.284Z,14.15
2022-09-10T13:49:36.932Z,14.26
2022-09-10T13:52:10.319Z,14.23
2022-09-10T13:54:37.640Z,14.26
2022-09-10T13:57:15.551Z,14.29
2022-09-10T13:59:43.009Z,14.33
2022-09-10T14:02:11.504Z,14.40
2022-09-10T14:04:43.133Z,14.47
2022-09-10T14:07:16.516Z,14.43
2022-09-10T14:09:45.744Z,14.49
2022-09-10T14:12:13.815Z,14.57
2022-09-10T14:14:44.366Z,14.50
2022-09-10T14:17:15.789Z,14.41
2022-09-10T14:19:47.011Z,14.59
2022-09-10T14:22:25.069Z,14.55
2022-09-10T14:24:56.268Z,14.47
2022-09-10T14:27:32.243Z,14.41
2022-09-10T14:30:19.788Z,14.34
2022-09-10T14:32:45.997Z,14.41
2022-09-10T14:35:44.776Z,14.49
2022-09-10T14:38:25.017Z,14.53
2022-09-10T14:40:56.058Z,14.59
2022-09-10T14:43:31.818Z,14.68
2022-09-10T14:45:57.855Z,14.46
2022-09-10T14:48:58.116Z,14.55
2022-09-10T14:51:24.877Z,14.55
2022-09-10T14:53:55.737Z,14.58
2022-09-10T14:56:34.398Z,14.66
2022-09-10T14:59:16.113Z,14.68
2022-09-10T15:01:47.534Z,14.45
2022-09-10T15:04:31.026Z,14.37
2022-09-10T15:07:01.907Z,14.44
2022-09-10T15:09:28.463Z,14.57
2022-09-10T15:11:58.368Z,14.75
2022-09-10T15:14:24.569Z,14.77
2022-09-10T15:16:54.208Z,14.87
2022-09-10T15:19:21.341Z,14.90
2022-09-10T15:21:47.946Z,14.83
2022-09-10T15:24:19.132Z,14.89
2022-09-10T15:26:45.616Z,14.60
2022-09-10T15:29:12.128Z,14.65
2022-09-10T15:31:38.421Z,14.62
2022-09-10T15:34:07.314Z,14.62
2022-09-10T15:36:34.627Z,14.71
2022-09-10T15:39:00.536Z,14.57
2022-09-10T15:41:27.075Z,14.49
2022-09-10T15:43:52.941Z,14.61
2022-09-10T15:46:21.220Z,14.74
2022-09-10T15:48:47.478Z,14.75
2022-09-10T15:51:20.848Z,14.82
2022-09-10T15:53:48.338Z,14.80
2022-09-10T15:56:14.762Z,14.82
2022-09-10T15:58:42.528Z,14.67
2022-09-10T16:01:14.310Z,14.66
2022-09-10T16:03:49.398Z,14.62
2022-09-10T16:06:17.462Z,14.70
2022-09-10T16:08:56.758Z,14.65
2022-09-10T16:11:23.939Z,14.73
2022-09-10T16:13:49.968Z,14.51
2022-09-10T16:16:18.615Z,14.39
2022-09-10T16:18:45.112Z,14.54
2022-09-10T16:21:15.182Z,14.58
2022-09-10T16:23:42.282Z,14.52
2022-09-10T16:26:11.498Z,14.55
2022-09-10T16:28:37.342Z,14.46
2022-09-10T16:31:12.221Z,14.62
2022-09-10T16:33:38.022Z,14.80
2022-09-10T16:36:04.951Z,14.63
2022-09-10T16:38:31.638Z,14.61
2022-09-10T16:41:00.985Z,14.57
2022-09-10T16:43:30.242Z,14.57
2022-09-10T16:45:56.027Z,14.65
2022-09-10T16:48:21.841Z,14.59
2022-09-10T16:50:47.626Z,14.56
2022-09-10T16:53:13.402Z,14.55
2022-09-10T16:55:39.369Z,14.42
2022-09-10T16:58:05.252Z,14.55
2022-09-10T17:00:33.814Z,14.53
2022-09-10T17:02:59.698Z,14.42
2022-09-10T17:05:25.909Z,14.33
2022-09-10T17:07:51.782Z,14.40
2022-09-10T17:10:19.757Z,14.44
2022-09-10T17:12:45.565Z,14.41
2022-09-10T17:15:11.440Z,14.35
2022-09-10T17:17:37.242Z,14.31
2022-09-10T17:20:04.493Z,14.28
2022-09-10T17:22:30.281Z,14.21
2022-09-10T17:24:56.157Z,14.26
2022-09-10T17:27:25.385Z,14.29
2022-09-10T17:29:51.488Z,14.29
2022-09-10T17:32:17.311Z,14.17
2022-09-10T17:34:43.100Z,14.21
2022-09-10T17:37:08.902Z,14.25
2022-09-10T17:39:34.771Z,14.33
2022-09-10T17:42:04.486Z,14.30
2022-09-10T17:44:30.382Z,14.41
2022-09-10T17:46:56.244Z,14.40
2022-09-10T17:49:22.054Z,14.33
2022-09-10T17:51:47.884Z,14.30
2022-09-10T17:54:14.508Z,14.37
2022-09-10T17:56:41.090Z,14.41
2022-09-10T17:59:06.878Z,14.45
2022-09-10T18:01:38.590Z,14.44
2022-09-10T18:04:06.581Z,14.40
2022-09-10T18:06:35.288Z,14.34
2022-09-10T18:09:01.584Z,14.30
2022-09-10T18:11:30.403Z,14.32
2022-09-10T18:13:57.974Z,14.27
2022-09-10T18:16:26.778Z,14.28
2022-09-10T18:18:55.250Z,14.31
2022-09-10T18:21:24.391Z,14.30
2022-09-10T18:23:59.589Z,14.38
2022-09-10T18:26:28.141Z,14.34
2022-09-10T18:28:59.668Z,14.32
2022-09-10T18:31:28.793Z,14.31
2022-09-10T18:33:55.048Z,14.29
2022-09-10T18:36:22.925Z,14.34
2022-09-10T18:38:49.162Z,14.38
2022-09-10T18:41:25.989Z,14.28
2022-09-10T18:43:57.602Z,14.32
2022-09-10T18:46:25.264Z,14.26
2022-09-10T18:48:52.236Z,14.26
2022-09-10T18:51:20.581Z,14.26
2022-09-10T18:53:47.593Z,14.27
2022-09-10T18:56:16.183Z,14.31
2022-09-10T18:58:46.871Z,14.49
2022-09-10T19:01:12.805Z,14.34
2022-09-10T19:03:41.751Z,14.34
2022-09-10T19:06:14.362Z,14.38
2022-09-10T19:08:49.165Z,14.33
2022-09-10T19:11:18.769Z,14.39
2022-09-10T19:13:49.934Z,14.31
2022-09-10T19:16:17.187Z,14.25
2022-09-10T19:18:43.570Z,14.34
2022-09-10T19:21:09.513Z,14.28
2022-09-10T19:23:36.056Z,14.34
2022-09-10T19:26:04.502Z,14.26
2022-09-10T19:28:33.911Z,14.31
2022-09-10T19:31:02.671Z,14.30
2022-09-10T19:33:28.714Z,14.30
2022-09-10T19:35:56.562Z,14.40
2022-09-10T19:38:37.034Z,14.33
2022-09-10T19:41:11.887Z,14.31
2022-09-10T19:43:38.588Z,14.22
2022-09-10T19:46:06.668Z,14.23
2022-09-10T19:48:32.992Z,14.34
2022-09-10T19:51:00.377Z,14.34
2022-09-10T19:53:26.473Z,14.32
2022-09-10T19:55:52.429Z,14.32
2022-09-10T19:58:18.891Z,14.29
2022-09-10T20:00:47.352Z,14.25
2022-09-10T20:03:14.325Z,14.26
2022-09-10T20:05:41.900Z,14.23
2022-09-10T20:08:08.471Z,14.26
2022-09-10T20:10:34.528Z,14.20
2022-09-10T20:13:00.321Z,14.25
2022-09-10T20:15:26.510Z,14.18
2022-09-10T20:17:52.352Z,14.16
2022-09-10T20:20:19.631Z,14.25
2022-09-10T20:22:46.354Z,14.30
2022-09-10T20:25:12.674Z,14.32
2022-09-10T20:27:38.494Z,14.25
2022-09-10T20:30:05.449Z,14.31
2022-09-10T20:32:31.312Z,14.29
2022-09-10T20:34:57.219Z,14.29
2022-09-10T20:37:24.233Z,14.30
2022-09-10T20:39:50.510Z,14.28
2022-09-10T20:42:19.068Z,14.25
2022-09-10T20:44:44.854Z,14.30
2022-09-10T20:47:10.794Z,14.34
2022-09-10T20:49:37.126Z,14.31
2022-09-10T20:52:06.246Z,14.29
2022-09-10T20:54:32.431Z,14.24
2022-09-10T20:56:58.169Z,14.18
2022-09-10T20:59:27.477Z,14.14
2022-09-10T21:01:55.774Z,14.26
2022-09-10T21:04:22.068Z,14.21
2022-09-10T21:06:47.965Z,14.21
2022-09-10T21:09:13.815Z,14.23
2022-09-10T21:11:39.704Z,14.23
2022-09-10T21:14:07.115Z,14.24
2022-09-10T21:16:35.599Z,14.27
2022-09-10T21:19:04.489Z,14.22
2022-09-10T21:21:33.370Z,14.15
2022-09-10T21:24:01.347Z,14.20
2022-09-10T21:26:29.703Z,14.23
2022-09-10T21:28:57.647Z,14.29
2022-09-10T21:31:24.819Z,14.28
2022-09-10T21:33:50.766Z,14.26
2022-09-10T21:36:18.653Z,14.25
2022-09-10T21:38:49.250Z,14.22
2022-09-10T21:41:17.645Z,14.26
2022-09-10T21:43:45.586Z,14.26
2022-09-10T21:46:15.265Z,14.20
2022-09-10T21:48:41.778Z,14.25
2022-09-10T21:51:12.530Z,14.25
2022-09-10T21:53:39.892Z,14.26
2022-09-10T21:56:06.382Z,14.26
2022-09-10T21:58:34.782Z,14.37
2022-09-10T22:01:00.974Z,14.36
2022-09-10T22:03:28.280Z,14.32
2022-09-10T22:06:08.707Z,14.26
2022-09-10T22:08:35.864Z,14.28
2022-09-10T22:11:15.402Z,14.22
2022-09-10T22:13:42.570Z,14.27
2022-09-10T22:16:10.058Z,14.22
2022-09-10T22:18:36.689Z,14.24
2022-09-10T22:21:03.283Z,14.23
2022-09-10T22:23:31.464Z,14.26
2022-09-10T22:26:15.475Z,14.23
2022-09-10T22:28:41.981Z,14.19
2022-09-10T22:31:12.251Z,14.18
2022-09-10T22:33:39.893Z,14.16
2022-09-10T22:36:20.186Z,14.21
2022-09-10T22:38:54.062Z,14.15
2022-09-10T22:41:22.376Z,14.14
2022-09-10T22:43:49.485Z,14.11
2022-09-10T22:46:16.220Z,14.13
2022-09-10T22:48:43.046Z,14.07
2022-09-10T22:51:12.051Z,14.15
2022-09-10T22:53:39.643Z,14.10
2022-09-10T22:56:06.699Z,14.02
2022-09-10T22:58:33.277Z,14.01
2022-09-10T23:01:07.592Z,14.07
2022-09-10T23:03:33.508Z,14.07
2022-09-10T23:06:14.541Z,14.04
2022-09-10T23:08:42.662Z,14.07
2022-09-10T23:11:17.065Z,14.01
2022-09-10T23:13:45.535Z,14.02
2022-09-10T23:16:17.447Z,14.03
2022-09-10T23:18:47.515Z,14.04
2022-09-10T23:21:13.405Z,14.00
2022-09-10T23:23:39.540Z,14.05
2022-09-10T23:26:08.169Z,14.07
2022-09-10T23:28:38.445Z,14.10
2022-09-10T23:31:09.890Z,14.11
2022-09-10T23:33:36.101Z,14.15
2022-09-10T23:36:03.300Z,14.05
2022-09-10T23:38:30.714Z,14.10
2022-09-10T23:40:58.592Z,14.11
2022-09-10T23:43:24.325Z,14.14
2022-09-10T23:45:50.129Z,14.18
2022-09-10T23:48:15.934Z,14.20
2022-09-10T23:50:42.144Z,14.19
2022-09-10T23:53:08.419Z,14.11
2022-09-10T23:55:36.144Z,14.17
2022-09-10T23:58:03.421Z,14.15
